createdAt,value
2022-12-23T00:00:18.179Z,942.9
2022-12-23T00:01:18.166Z,942.87
2022-12-23T00:02:18.223Z,942.84
2022-12-23T00:03:18.207Z,942.88
2022-12-23T00:04:18.252Z,942.89
2022-12-23T00:05:18.112Z,942.82
2022-12-23T00:06:18.096Z,942.84
2022-12-23T00:07:18.099Z,942.8
2022-12-23T00:08:18.061Z,942.87
2022-12-23T00:09:18.052Z,942.8
2022-12-23T00:10:18.031Z,942.84
2022-12-23T00:11:18.034Z,942.82
2022-12-23T00:12:18.009Z,942.74
2022-12-23T00:13:17.991Z,942.79
2022-12-23T00:14:21.414Z,942.8
2022-12-23T00:15:17.958Z,942.75
2022-12-23T00:16:17.976Z,942.74
2022-12-23T00:17:22.368Z,942.72
2022-12-23T00:18:17.919Z,942.73
2022-12-23T00:19:17.905Z,942.76
2022-12-23T00:20:17.886Z,942.74
2022-12-23T00:21:17.870Z,942.71
2022-12-23T00:22:17.857Z,942.72
2022-12-23T00:23:17.867Z,942.65
2022-12-23T00:24:17.828Z,942.69
2022-12-23T00:25:17.817Z,942.69
2022-12-23T00:26:17.797Z,942.61
2022-12-23T00:27:17.786Z,942.63
2022-12-23T00:28:17.767Z,942.65
2022-12-23T00:29:17.753Z,942.63
2022-12-23T00:30:17.746Z,942.6
2022-12-23T00:31:17.762Z,942.58
2022-12-23T00:32:17.777Z,942.54
2022-12-23T00:33:17.703Z,942.59
2022-12-23T00:34:17.688Z,942.56
2022-12-23T00:35:17.668Z,942.52
2022-12-23T00:36:17.735Z,942.53
2022-12-23T00:37:17.638Z,942.49
2022-12-23T00:38:17.622Z,942.47
2022-12-23T00:39:17.633Z,942.47
2022-12-23T00:40:17.589Z,942.45
2022-12-23T00:41:18.199Z,942.52
2022-12-23T00:42:18.196Z,942.48
2022-12-23T00:43:18.168Z,942.54
2022-12-23T00:44:18.171Z,942.43
2022-12-23T00:45:18.147Z,942.45
2022-12-23T00:46:18.165Z,942.47
2022-12-23T00:47:18.111Z,942.48
2022-12-23T00:48:18.097Z,942.47
2022-12-23T00:49:18.088Z,942.46
2022-12-23T00:50:18.063Z,942.5
2022-12-23T00:51:18.050Z,942.47
2022-12-23T00:52:18.035Z,942.49
2022-12-23T00:53:18.020Z,942.46
2022-12-23T00:54:18.005Z,942.52
2022-12-23T00:55:18.020Z,942.53
2022-12-23T00:56:17.977Z,942.55
2022-12-23T00:57:17.964Z,942.5
2022-12-23T00:58:17.950Z,942.51
2022-12-23T00:59:17.939Z,942.53
2022-12-23T01:00:17.916Z,942.54
2022-12-23T01:01:18.008Z,942.48
2022-12-23T01:02:18.024Z,942.5
2022-12-23T01:03:17.911Z,942.56
2022-12-23T01:04:17.861Z,942.48
2022-12-23T01:05:17.847Z,942.44
2022-12-23T01:06:17.830Z,942.46
2022-12-23T01:07:17.828Z,942.48
2022-12-23T01:08:17.803Z,942.5
2022-12-23T01:09:17.791Z,942.52
2022-12-23T01:10:17.769Z,942.56
2022-12-23T01:11:17.782Z,942.48
2022-12-23T01:12:17.752Z,942.5
2022-12-23T01:13:17.727Z,942.48
2022-12-23T01:14:17.722Z,942.53
2022-12-23T01:15:17.722Z,942.53
2022-12-23T01:16:18.100Z,942.5
2022-12-23T01:17:17.689Z,942.53
2022-12-23T01:18:17.657Z,942.55
2022-12-23T01:19:17.639Z,942.53
2022-12-23T01:20:17.629Z,942.54
2022-12-23T01:21:17.610Z,942.52
2022-12-23T01:22:17.597Z,942.47
2022-12-23T01:23:17.586Z,942.45
2022-12-23T01:24:17.584Z,942.42
2022-12-23T01:25:17.557Z,942.39
2022-12-23T01:26:17.537Z,942.46
2022-12-23T01:27:17.544Z,942.39
2022-12-23T01:28:17.510Z,942.39
2022-12-23T01:29:17.493Z,942.4
2022-12-23T01:30:17.481Z,942.44
2022-12-23T01:31:17.508Z,942.42
2022-12-23T01:32:17.495Z,942.44
2022-12-23T01:33:17.476Z,942.36
2022-12-23T01:34:17.423Z,942.34
2022-12-23T01:35:17.404Z,942.37
2022-12-23T01:36:17.390Z,942.36
2022-12-23T01:37:17.376Z,942.34
2022-12-23T01:38:17.365Z,942.4
2022-12-23T01:39:17.353Z,942.31
2022-12-23T01:40:17.340Z,942.36
2022-12-23T01:41:17.319Z,942.32
2022-12-23T01:42:17.304Z,942.29
2022-12-23T01:43:17.312Z,942.31
2022-12-23T01:44:17.285Z,942.29
2022-12-23T01:45:17.272Z,942.33
2022-12-23T01:46:17.286Z,942.34
2022-12-23T01:47:17.231Z,942.3
2022-12-23T01:48:17.237Z,942.36
2022-12-23T01:49:17.203Z,942.34
2022-12-23T01:50:17.188Z,942.32
2022-12-23T01:51:17.177Z,942.21
2022-12-23T01:52:17.158Z,942.19
2022-12-23T01:53:17.145Z,942.17
2022-12-23T01:54:17.127Z,942.09
2022-12-23T01:55:17.111Z,942.08
2022-12-23T01:56:17.104Z,942.07
2022-12-23T01:57:17.083Z,942.07
2022-12-23T01:58:17.070Z,942.09
2022-12-23T01:59:17.185Z,942.05
2022-12-23T02:00:17.051Z,942.14
2022-12-23T02:01:17.091Z,942.07
2022-12-23T02:02:17.172Z,942.1
2022-12-23T02:03:17.021Z,942.15
2022-12-23T02:04:16.984Z,942.12
2022-12-23T02:05:16.973Z,942.11
2022-12-23T02:06:16.952Z,942.08
2022-12-23T02:07:16.940Z,942.15
2022-12-23T02:08:16.923Z,942.16
2022-12-23T02:09:16.908Z,942.21
2022-12-23T02:10:16.893Z,942.24
2022-12-23T02:11:16.879Z,942.18
2022-12-23T02:12:16.863Z,942.23
2022-12-23T02:13:16.854Z,942.23
2022-12-23T02:14:16.836Z,942.18
2022-12-23T02:15:16.842Z,942.21
2022-12-23T02:16:16.907Z,942.2
2022-12-23T02:17:16.832Z,942.22
2022-12-23T02:18:16.787Z,942.16
2022-12-23T02:19:16.760Z,942.14
2022-12-23T02:20:16.748Z,942.13
2022-12-23T02:21:16.737Z,942.07
2022-12-23T02:22:16.717Z,942.08
2022-12-23T02:23:16.704Z,942.06
2022-12-23T02:24:16.685Z,942.05
2022-12-23T02:25:16.677Z,942.12
2022-12-23T02:26:16.656Z,942.05
2022-12-23T02:27:16.643Z,942.06
2022-12-23T02:28:16.627Z,942.09
2022-12-23T02:29:16.614Z,942.07
2022-12-23T02:30:16.602Z,942.07
2022-12-23T02:31:16.662Z,942.09
2022-12-23T02:32:16.567Z,942.1
2022-12-23T02:33:16.554Z,942.07
2022-12-23T02:34:16.537Z,942.08
2022-12-23T02:35:16.524Z,942.03
2022-12-23T02:36:16.507Z,942.06
2022-12-23T02:37:16.498Z,942.02
2022-12-23T02:38:16.498Z,942.06
2022-12-23T02:39:16.467Z,942.09
2022-12-23T02:40:16.455Z,942.05
2022-12-23T02:41:16.438Z,942.06
2022-12-23T02:42:16.431Z,942.06
2022-12-23T02:43:16.406Z,942.04
2022-12-23T02:44:16.390Z,942.05
2022-12-23T02:45:16.375Z,942.09
2022-12-23T02:46:16.419Z,942.1
2022-12-23T02:47:16.374Z,942.07
2022-12-23T02:48:16.331Z,942.1
2022-12-23T02:49:16.333Z,942.1
2022-12-23T02:50:16.310Z,942.08
2022-12-23T02:51:16.294Z,942.13
2022-12-23T02:52:16.271Z,942.16
2022-12-23T02:53:16.261Z,942.2
2022-12-23T02:54:16.246Z,942.17
2022-12-23T02:55:16.231Z,942.15
2022-12-23T02:56:16.212Z,942.18
2022-12-23T02:57:16.207Z,942.14
2022-12-23T02:58:16.184Z,942.2
2022-12-23T02:59:16.170Z,942.17
2022-12-23T03:00:16.160Z,942.15
2022-12-23T03:01:16.172Z,942.14
2022-12-23T03:02:16.357Z,942.13
2022-12-23T03:03:16.238Z,942.19
2022-12-23T03:04:16.104Z,942.21
2022-12-23T03:05:16.081Z,942.2
2022-12-23T03:06:16.067Z,942.2
2022-12-23T03:07:18.579Z,942.25
2022-12-23T03:08:16.039Z,942.17
2022-12-23T03:09:16.019Z,942.21
2022-12-23T03:10:16.006Z,942.26
2022-12-23T03:11:15.993Z,942.25
2022-12-23T03:12:15.983Z,942.25
2022-12-23T03:13:15.962Z,942.28
2022-12-23T03:14:15.951Z,942.2
2022-12-23T03:15:15.932Z,942.19
2022-12-23T03:16:15.986Z,942.18
2022-12-23T03:17:15.910Z,942.19
2022-12-23T03:18:15.890Z,942.16
2022-12-23T03:19:15.917Z,942.22
2022-12-23T03:20:15.876Z,942.17
2022-12-23T03:21:15.847Z,942.2
2022-12-23T03:22:15.832Z,942.19
2022-12-23T03:23:15.817Z,942.3
2022-12-23T03:24:15.811Z,942.3
2022-12-23T03:25:15.787Z,942.31
2022-12-23T03:26:15.774Z,942.33
2022-12-23T03:27:15.759Z,942.29
2022-12-23T03:28:15.744Z,942.26
2022-12-23T03:29:15.729Z,942.33
2022-12-23T03:30:15.719Z,942.36
2022-12-23T03:31:15.742Z,942.43
2022-12-23T03:32:15.687Z,942.4
2022-12-23T03:33:15.668Z,942.41
2022-12-23T03:49:48.500Z,942.43
2022-12-23T03:50:48.459Z,942.46
2022-12-23T03:51:48.437Z,942.46
2022-12-23T03:52:48.418Z,942.48
2022-12-23T03:53:48.407Z,942.51
2022-12-23T03:54:48.384Z,942.5
2022-12-23T03:55:48.376Z,942.53
2022-12-23T03:56:48.349Z,942.54
2022-12-23T03:57:48.333Z,942.53
2022-12-23T03:58:48.328Z,942.54
2022-12-23T03:59:48.299Z,942.54
2022-12-23T04:00:48.286Z,942.57
2022-12-23T04:01:48.416Z,942.58
2022-12-23T04:02:48.344Z,942.57
2022-12-23T04:03:48.315Z,942.61
2022-12-23T04:04:48.223Z,942.57
2022-12-23T04:05:48.245Z,942.55
2022-12-23T04:06:48.193Z,942.6
2022-12-23T04:07:48.174Z,942.61
2022-12-23T04:08:48.171Z,942.63
2022-12-23T04:09:48.146Z,942.59
2022-12-23T04:10:48.130Z,942.62
2022-12-23T04:11:48.120Z,942.61
2022-12-23T04:12:48.097Z,942.59
2022-12-23T04:13:48.086Z,942.6
2022-12-23T04:14:48.082Z,942.59
2022-12-23T04:15:48.120Z,942.61
2022-12-23T04:16:48.036Z,942.65
2022-12-23T04:17:48.026Z,942.56
2022-12-23T04:18:48.006Z,942.58
2022-12-23T04:19:47.998Z,942.63
2022-12-23T04:20:47.978Z,942.61
2022-12-23T04:21:47.986Z,942.58
2022-12-23T04:22:47.948Z,942.6
2022-12-23T04:23:47.932Z,942.62
2022-12-23T04:24:47.919Z,942.65
2022-12-23T04:25:47.903Z,942.6
2022-12-23T04:26:47.889Z,942.6
2022-12-23T04:27:47.885Z,942.6
2022-12-23T04:28:48.485Z,942.63
2022-12-23T04:29:48.475Z,942.6
2022-12-23T04:30:48.455Z,942.56
2022-12-23T04:31:48.483Z,942.54
2022-12-23T04:32:48.427Z,942.53
2022-12-23T04:33:48.413Z,942.53
2022-12-23T04:34:48.397Z,942.55
2022-12-23T04:35:48.397Z,942.54
2022-12-23T04:36:48.371Z,942.54
2022-12-23T04:37:48.426Z,942.5
2022-12-23T04:38:48.339Z,942.46
2022-12-23T04:39:48.323Z,942.48
2022-12-23T04:40:48.309Z,942.47
2022-12-23T04:41:48.298Z,942.48
2022-12-23T04:42:48.276Z,942.46
2022-12-23T04:43:52.906Z,942.42
2022-12-23T04:44:48.246Z,942.47
2022-12-23T04:45:48.241Z,942.42
2022-12-23T04:46:48.311Z,942.45
2022-12-23T04:47:48.204Z,942.45
2022-12-23T04:48:48.202Z,942.45
2022-12-23T04:49:48.172Z,942.48
2022-12-23T04:50:48.159Z,942.43
2022-12-23T04:51:48.144Z,942.45
2022-12-23T04:52:48.145Z,942.44
2022-12-23T04:53:48.142Z,942.45
2022-12-23T04:54:48.104Z,942.49
2022-12-23T04:55:48.090Z,942.44
2022-12-23T04:56:48.071Z,942.44
2022-12-23T04:57:48.054Z,942.46
2022-12-23T04:58:48.052Z,942.46
2022-12-23T04:59:48.025Z,942.44
2022-12-23T05:00:48.026Z,942.5
2022-12-23T05:01:48.180Z,942.48
2022-12-23T05:02:48.116Z,942.49
2022-12-23T05:03:47.968Z,942.47
2022-12-23T05:04:47.956Z,942.49
2022-12-23T05:05:47.938Z,942.53
2022-12-23T05:06:47.924Z,942.53
2022-12-23T05:07:47.912Z,942.53
2022-12-23T05:08:47.895Z,942.54
2022-12-23T05:09:48.020Z,942.55
2022-12-23T05:10:47.864Z,942.53
2022-12-23T05:11:47.851Z,942.54
2022-12-23T05:12:47.838Z,942.61
2022-12-23T05:13:47.819Z,942.55
2022-12-23T05:14:47.808Z,942.59
2022-12-23T05:15:47.792Z,942.59
2022-12-23T05:16:47.894Z,942.59
2022-12-23T05:17:47.763Z,942.58
2022-12-23T05:18:47.750Z,942.59
2022-12-23T05:19:47.738Z,942.62
2022-12-23T05:20:47.727Z,942.6
2022-12-23T05:21:47.704Z,942.6
2022-12-23T05:22:47.691Z,942.62
2022-12-23T05:23:47.674Z,942.58
2022-12-23T05:24:47.660Z,942.62
2022-12-23T05:25:47.672Z,942.65
2022-12-23T05:26:48.007Z,942.64
2022-12-23T05:27:47.617Z,942.67
2022-12-23T05:28:47.611Z,942.64
2022-12-23T05:29:47.587Z,942.67
2022-12-23T05:30:47.586Z,942.7
2022-12-23T05:31:47.623Z,942.7
2022-12-23T05:32:47.543Z,942.7
2022-12-23T05:33:47.572Z,942.7
2022-12-23T05:34:47.512Z,942.71
2022-12-23T05:35:47.499Z,942.73
2022-12-23T05:36:47.510Z,942.79
2022-12-23T05:37:47.470Z,942.83
2022-12-23T05:38:47.452Z,942.82
2022-12-23T05:39:47.468Z,942.84
2022-12-23T05:40:47.423Z,942.86
2022-12-23T05:41:47.433Z,942.91
2022-12-23T05:42:47.393Z,942.89
2022-12-23T05:43:47.382Z,942.86
2022-12-23T05:44:47.366Z,942.9
2022-12-23T05:45:47.401Z,942.92
2022-12-23T05:46:47.350Z,942.94
2022-12-23T05:47:47.325Z,942.93
2022-12-23T05:48:47.305Z,942.96
2022-12-23T05:49:47.294Z,942.94
2022-12-23T05:50:47.275Z,942.99
2022-12-23T05:51:47.261Z,943.02
2022-12-23T05:52:47.249Z,942.99
2022-12-23T05:53:47.255Z,942.96
2022-12-23T05:54:47.219Z,942.96
2022-12-23T05:55:47.204Z,942.96
2022-12-23T05:56:47.192Z,942.99
2022-12-23T05:57:47.197Z,942.91
2022-12-23T05:58:47.159Z,942.95
2022-12-23T05:59:47.145Z,942.95
2022-12-23T06:00:47.129Z,942.91
2022-12-23T06:01:47.177Z,942.89
2022-12-23T06:02:51.858Z,942.89
2022-12-23T06:03:47.170Z,942.91
2022-12-23T06:04:47.075Z,942.93
2022-12-23T06:05:47.058Z,942.94
2022-12-23T06:06:47.044Z,942.94
2022-12-23T06:07:47.032Z,942.9
2022-12-23T06:08:47.010Z,942.95
2022-12-23T06:09:47.002Z,943
2022-12-23T06:10:46.982Z,942.97
2022-12-23T06:11:46.969Z,943.04
2022-12-23T06:12:46.956Z,942.97
2022-12-23T06:13:46.965Z,942.96
2022-12-23T06:14:46.925Z,942.92
2022-12-23T06:15:46.923Z,942.93
2022-12-23T06:16:46.938Z,942.93
2022-12-23T06:17:46.882Z,942.91
2022-12-23T06:18:46.865Z,942.94
2022-12-23T06:19:46.851Z,942.95
2022-12-23T06:20:46.839Z,942.94
2022-12-23T06:21:46.823Z,942.95
2022-12-23T06:22:46.816Z,942.98
2022-12-23T06:23:46.791Z,942.92
2022-12-23T06:24:46.785Z,942.97
2022-12-23T06:25:46.767Z,942.99
2022-12-23T06:26:47.514Z,942.96
2022-12-23T06:27:46.734Z,942.96
2022-12-23T06:28:46.722Z,942.97
2022-12-23T06:29:46.729Z,942.99
2022-12-23T06:30:46.690Z,942.91
2022-12-23T06:31:46.734Z,942.99
2022-12-23T06:32:46.662Z,943.03
2022-12-23T06:33:46.645Z,943.05
2022-12-23T06:34:46.643Z,943.08
2022-12-23T06:35:46.616Z,943.12
2022-12-23T06:36:46.611Z,943.1
2022-12-23T06:37:46.603Z,943.13
2022-12-23T06:38:46.578Z,943.17
2022-12-23T06:39:46.557Z,943.12
2022-12-23T06:40:46.559Z,943.14
2022-12-23T06:41:46.531Z,943.17
2022-12-23T06:42:46.519Z,943.16
2022-12-23T06:43:49.905Z,943.16
2022-12-23T06:44:46.489Z,943.2
2022-12-23T06:45:46.590Z,943.16
2022-12-23T06:46:46.461Z,943.23
2022-12-23T06:47:46.449Z,943.18
2022-12-23T06:48:46.435Z,943.19
2022-12-23T06:49:46.428Z,943.19
2022-12-23T06:50:46.424Z,943.21
2022-12-23T06:51:46.387Z,943.2
2022-12-23T06:52:46.375Z,943.22
2022-12-23T06:53:46.357Z,943.28
2022-12-23T06:54:46.364Z,943.3
2022-12-23T06:55:46.332Z,943.29
2022-12-23T06:56:46.314Z,943.33
2022-12-23T06:57:46.298Z,943.34
2022-12-23T06:58:46.285Z,943.35
2022-12-23T06:59:46.268Z,943.38
2022-12-23T07:00:46.289Z,943.38
2022-12-23T07:01:46.399Z,943.39
2022-12-23T07:02:46.393Z,943.42
2022-12-23T07:03:46.302Z,943.5
2022-12-23T07:04:46.198Z,943.48
2022-12-23T07:05:46.183Z,943.49
2022-12-23T07:06:46.173Z,943.59
2022-12-23T07:07:46.152Z,943.53
2022-12-23T07:08:46.144Z,943.58
2022-12-23T07:09:46.124Z,943.52
2022-12-23T07:10:46.118Z,943.53
2022-12-23T07:11:46.099Z,943.5
2022-12-23T07:12:50.653Z,943.53
2022-12-23T07:13:46.069Z,943.54
2022-12-23T07:14:46.072Z,943.52
2022-12-23T07:15:46.042Z,943.55
2022-12-23T07:16:46.161Z,943.52
2022-12-23T07:17:46.036Z,943.57
2022-12-23T07:18:45.997Z,943.57
2022-12-23T07:19:45.983Z,943.57
2022-12-23T07:20:45.967Z,943.57
2022-12-23T07:21:45.956Z,943.56
2022-12-23T07:22:45.971Z,943.54
2022-12-23T07:23:45.923Z,943.54
2022-12-23T07:24:45.911Z,943.53
2022-12-23T07:25:45.894Z,943.58
2022-12-23T07:26:45.877Z,943.64
2022-12-23T07:27:45.874Z,943.61
2022-12-23T07:28:45.853Z,943.64
2022-12-23T07:29:45.841Z,943.65
2022-12-23T07:30:45.836Z,943.63
2022-12-23T07:31:45.897Z,943.65
2022-12-23T07:32:45.796Z,943.65
2022-12-23T07:33:45.823Z,943.68
2022-12-23T07:34:45.764Z,943.69
2022-12-23T07:35:45.751Z,943.64
2022-12-23T07:36:45.734Z,943.67
2022-12-23T07:37:45.722Z,943.68
2022-12-23T07:38:45.709Z,943.72
2022-12-23T07:39:45.695Z,943.69
2022-12-23T07:40:45.679Z,943.7
2022-12-23T07:41:45.674Z,943.71
2022-12-23T07:42:48.087Z,943.74
2022-12-23T07:43:48.076Z,943.74
2022-12-23T07:44:48.058Z,943.79
2022-12-23T07:45:51.275Z,943.76
2022-12-23T07:46:48.390Z,943.74
2022-12-23T07:47:48.348Z,943.7
2022-12-23T07:48:48.348Z,943.76
2022-12-23T07:49:48.343Z,943.72
2022-12-23T07:50:48.320Z,943.73
2022-12-23T07:51:48.288Z,943.72
2022-12-23T07:52:48.294Z,943.73
2022-12-23T07:53:48.261Z,943.77
2022-12-23T07:54:48.239Z,943.74
2022-12-23T07:55:53.049Z,943.76
2022-12-23T07:56:48.213Z,943.71
2022-12-23T07:57:48.200Z,943.73
2022-12-23T07:58:48.184Z,943.7
2022-12-23T07:59:48.169Z,943.74
2022-12-23T08:00:48.160Z,943.77
2022-12-23T08:01:48.227Z,943.77
2022-12-23T08:02:48.240Z,943.8
2022-12-23T08:03:48.167Z,943.8
2022-12-23T08:04:48.147Z,943.82
2022-12-23T08:05:48.168Z,943.82
2022-12-23T08:06:48.079Z,943.84
2022-12-23T08:07:48.675Z,943.8
2022-12-23T08:08:48.661Z,943.84
2022-12-23T08:09:48.652Z,943.87
2022-12-23T08:10:48.785Z,943.85
2022-12-23T08:11:48.617Z,943.85
2022-12-23T08:12:48.608Z,943.92
2022-12-23T08:13:48.588Z,943.92
2022-12-23T08:14:48.581Z,943.92
2022-12-23T08:15:48.562Z,943.95
2022-12-23T08:16:48.565Z,943.97
2022-12-23T08:17:48.534Z,944.06
2022-12-23T08:18:48.523Z,944.02
2022-12-23T08:19:48.507Z,944.04
2022-12-23T08:20:48.500Z,944.08
2022-12-23T08:21:48.504Z,944.02
2022-12-23T08:22:48.464Z,944.01
2022-12-23T08:23:48.446Z,944.08
2022-12-23T08:24:48.435Z,944.07
2022-12-23T08:25:48.417Z,944.11
2022-12-23T08:26:48.409Z,944.07
2022-12-23T08:27:48.391Z,944.13
2022-12-23T08:28:48.381Z,944.07
2022-12-23T08:29:48.363Z,944.14
2022-12-23T08:30:48.451Z,944.06
2022-12-23T08:31:48.333Z,944.11
2022-12-23T08:32:48.321Z,944.06
2022-12-23T08:33:48.304Z,944.07
2022-12-23T08:34:48.289Z,944.09
2022-12-23T08:35:48.274Z,944.01
2022-12-23T08:36:48.263Z,944.06
2022-12-23T08:37:48.269Z,944
2022-12-23T08:38:48.235Z,944.03
2022-12-23T08:39:48.216Z,944.07
2022-12-23T08:40:48.209Z,944.12
2022-12-23T08:41:48.187Z,944.12
2022-12-23T08:42:48.177Z,944.1
2022-12-23T08:43:48.180Z,944.13
2022-12-23T08:44:48.147Z,944.16
2022-12-23T08:45:48.161Z,944.16
2022-12-23T08:46:48.179Z,944.17
2022-12-23T08:47:48.103Z,944.22
2022-12-23T08:48:49.554Z,944.2
2022-12-23T08:49:48.073Z,944.19
2022-12-23T08:50:48.060Z,944.16
2022-12-23T08:51:48.048Z,944.2
2022-12-23T08:52:48.034Z,944.22
2022-12-23T08:53:48.043Z,944.17
2022-12-23T08:54:48.024Z,944.17
2022-12-23T08:55:47.987Z,944.13
2022-12-23T08:56:47.974Z,944.18
2022-12-23T08:57:47.963Z,944.21
2022-12-23T08:58:47.962Z,944.24
2022-12-23T08:59:47.938Z,944.26
2022-12-23T09:00:47.948Z,944.21
2022-12-23T09:01:48.322Z,944.24
2022-12-23T09:02:48.106Z,944.27
2022-12-23T09:03:47.950Z,944.26
2022-12-23T09:04:47.862Z,944.24
2022-12-23T09:05:47.851Z,944.32
2022-12-23T09:06:47.833Z,944.3
2022-12-23T09:07:47.824Z,944.31
2022-12-23T09:08:47.808Z,944.37
2022-12-23T09:09:47.824Z,944.38
2022-12-23T09:10:47.779Z,944.4
2022-12-23T09:11:47.770Z,944.41
2022-12-23T09:12:47.753Z,944.39
2022-12-23T09:13:47.740Z,944.36
2022-12-23T09:14:47.764Z,944.39
2022-12-23T09:15:47.764Z,944.42
2022-12-23T09:16:47.700Z,944.41
2022-12-23T09:17:47.682Z,944.4
2022-12-23T09:18:47.668Z,944.46
2022-12-23T09:19:52.638Z,944.43
2022-12-23T09:20:47.643Z,944.47
2022-12-23T09:21:47.644Z,944.42
2022-12-23T09:22:47.615Z,944.48
2022-12-23T09:23:47.631Z,944.49
2022-12-23T09:24:47.585Z,944.49
2022-12-23T09:25:47.597Z,944.51
2022-12-23T09:26:47.560Z,944.56
2022-12-23T09:27:47.546Z,944.54
2022-12-23T09:28:47.530Z,944.54
2022-12-23T09:29:47.518Z,944.54
2022-12-23T09:30:47.522Z,944.55
2022-12-23T09:31:47.559Z,944.57
2022-12-23T09:32:47.478Z,944.57
2022-12-23T09:33:47.466Z,944.57
2022-12-23T09:34:47.448Z,944.62
2022-12-23T09:35:47.445Z,944.58
2022-12-23T09:36:51.925Z,944.58
2022-12-23T09:37:47.411Z,944.57
2022-12-23T09:38:47.414Z,944.56
2022-12-23T09:39:47.383Z,944.5
2022-12-23T09:40:47.368Z,944.51
2022-12-23T09:41:47.401Z,944.48
2022-12-23T09:42:47.351Z,944.51
2022-12-23T09:43:47.328Z,944.49
2022-12-23T09:44:47.315Z,944.48
2022-12-23T09:45:47.301Z,944.51
2022-12-23T09:46:47.318Z,944.53
2022-12-23T09:47:47.277Z,944.53
2022-12-23T09:48:47.269Z,944.52
2022-12-23T09:49:47.246Z,944.5
2022-12-23T09:50:47.249Z,944.53
2022-12-23T09:51:47.220Z,944.49
2022-12-23T09:52:47.206Z,944.48
2022-12-23T09:53:47.196Z,944.48
2022-12-23T09:54:47.177Z,944.52
2022-12-23T09:55:47.165Z,944.47
2022-12-23T09:56:47.152Z,944.43
2022-12-23T09:57:47.167Z,944.43
2022-12-23T09:58:47.127Z,944.45
2022-12-23T09:59:47.117Z,944.38
2022-12-23T10:00:47.101Z,944.39
2022-12-23T10:01:47.184Z,944.45
2022-12-23T10:02:47.258Z,944.42
2022-12-23T10:03:47.299Z,944.41
2022-12-23T10:04:47.047Z,944.38
2022-12-23T10:05:47.032Z,944.35
2022-12-23T10:06:47.019Z,944.4
2022-12-23T10:07:47.005Z,944.35
2022-12-23T10:08:47.000Z,944.37
2022-12-23T10:09:46.996Z,944.41
2022-12-23T10:10:46.970Z,944.35
2022-12-23T10:11:46.977Z,944.37
2022-12-23T10:12:46.954Z,944.29
2022-12-23T10:13:46.982Z,944.36
2022-12-23T10:14:46.915Z,944.39
2022-12-23T10:15:46.932Z,944.35
2022-12-23T10:16:46.931Z,944.4
2022-12-23T10:17:46.872Z,944.37
2022-12-23T10:18:46.867Z,944.28
2022-12-23T10:19:46.846Z,944.33
2022-12-23T10:20:46.838Z,944.31
2022-12-23T10:21:47.721Z,944.38
2022-12-23T10:22:46.811Z,944.36
2022-12-23T10:23:46.799Z,944.37
2022-12-23T10:24:46.830Z,944.29
2022-12-23T10:25:46.767Z,944.32
2022-12-23T10:26:46.764Z,944.31
2022-12-23T10:27:46.747Z,944.3
2022-12-23T10:28:46.730Z,944.34
2022-12-23T10:29:46.747Z,944.32
2022-12-23T10:31:17.078Z,944.3
2022-12-23T10:31:49.833Z,944.3
2022-12-23T10:32:49.804Z,944.3
2022-12-23T10:33:49.737Z,944.28
2022-12-23T10:34:49.729Z,944.25
2022-12-23T10:35:49.712Z,944.25
2022-12-23T10:36:49.741Z,944.26
2022-12-23T10:37:49.702Z,944.24
2022-12-23T10:38:49.675Z,944.26
2022-12-23T10:39:49.673Z,944.26
2022-12-23T10:40:49.653Z,944.24
2022-12-23T10:41:49.637Z,944.17
2022-12-23T10:42:49.626Z,944.24
2022-12-23T10:43:49.614Z,944.25
2022-12-23T10:44:49.619Z,944.24
2022-12-23T10:45:49.618Z,944.23
2022-12-23T10:46:49.626Z,944.26
2022-12-23T10:47:49.566Z,944.25
2022-12-23T10:48:49.545Z,944.36
2022-12-23T10:49:49.541Z,944.38
2022-12-23T10:50:49.524Z,944.42
2022-12-23T10:51:49.508Z,944.42
2022-12-23T10:52:49.495Z,944.45
2022-12-23T10:53:49.481Z,944.44
2022-12-23T10:54:49.469Z,944.42
2022-12-23T10:55:49.457Z,944.4
2022-12-23T10:56:49.460Z,944.44
2022-12-23T10:57:49.430Z,944.44
2022-12-23T10:58:49.417Z,944.43
2022-12-23T10:59:49.409Z,944.5
2022-12-23T11:00:49.461Z,944.46
2022-12-23T11:01:49.598Z,944.47
2022-12-23T11:02:49.459Z,944.46
2022-12-23T11:03:49.509Z,944.48
2022-12-23T11:04:49.341Z,944.42
2022-12-23T11:05:49.331Z,944.44
2022-12-23T11:06:52.882Z,944.43
2022-12-23T11:07:51.231Z,944.44
2022-12-23T11:08:51.221Z,944.39
2022-12-23T11:09:51.216Z,944.42
2022-12-23T11:10:51.189Z,944.4
2022-12-23T11:11:51.181Z,944.49
2022-12-23T11:12:51.175Z,944.43
2022-12-23T11:13:51.153Z,944.44
2022-12-23T11:14:51.146Z,944.42
2022-12-23T11:15:51.228Z,944.45
2022-12-23T11:16:51.208Z,944.5
2022-12-23T11:17:51.106Z,944.42
2022-12-23T11:18:51.093Z,944.44
2022-12-23T11:19:51.081Z,944.43
2022-12-23T11:20:51.067Z,944.41
2022-12-23T11:21:51.053Z,944.41
2022-12-23T11:22:51.064Z,944.4
2022-12-23T11:23:51.029Z,944.4
2022-12-23T11:24:51.016Z,944.37
2022-12-23T11:25:51.004Z,944.43
2022-12-23T11:26:50.990Z,944.41
2022-12-23T11:27:50.980Z,944.43
2022-12-23T11:28:50.968Z,944.38
2022-12-23T11:29:50.952Z,944.35
2022-12-23T11:30:55.758Z,944.34
2022-12-23T11:31:51.018Z,944.38
2022-12-23T11:32:50.942Z,944.35
2022-12-23T11:33:50.898Z,944.35
2022-12-23T11:34:50.886Z,944.36
2022-12-23T11:35:50.939Z,944.32
2022-12-23T11:36:54.559Z,944.29
2022-12-23T11:37:51.290Z,944.31
2022-12-23T11:38:51.300Z,944.27
2022-12-23T11:39:51.263Z,944.24
2022-12-23T11:40:51.259Z,944.24
2022-12-23T11:41:51.238Z,944.25
2022-12-23T11:42:55.088Z,944.24
2022-12-23T11:43:51.214Z,944.25
2022-12-23T11:44:51.203Z,944.27
2022-12-23T11:45:51.199Z,944.33
2022-12-23T11:46:51.187Z,944.33
2022-12-23T11:47:51.162Z,944.27
2022-12-23T11:48:54.702Z,944.27
2022-12-23T11:49:51.204Z,944.21
2022-12-23T11:50:51.125Z,944.19
2022-12-23T11:51:51.111Z,944.21
2022-12-23T11:52:51.109Z,944.12
2022-12-23T11:53:51.102Z,944.16
2022-12-23T11:54:54.324Z,944.11
2022-12-23T11:55:51.059Z,944.1
2022-12-23T11:56:51.081Z,944.1
2022-12-23T11:57:51.034Z,944.1
2022-12-23T11:58:51.039Z,944.08
2022-12-23T11:59:51.029Z,944.13
2022-12-23T12:00:55.464Z,944.09
2022-12-23T12:01:50.991Z,944.1
2022-12-23T12:02:51.078Z,944.07
2022-12-23T12:03:50.989Z,944.06
2022-12-23T12:04:50.970Z,944.08
2022-12-23T12:05:50.956Z,944.09
2022-12-23T12:06:55.979Z,944.06
2022-12-23T12:07:50.905Z,944.03
2022-12-23T12:08:50.893Z,944.04
2022-12-23T12:09:50.890Z,944.08
2022-12-23T12:10:50.867Z,944.05
2022-12-23T12:11:50.852Z,944.1
2022-12-23T12:12:54.603Z,944.07
2022-12-23T12:13:50.825Z,944.05
2022-12-23T12:14:50.814Z,944.03
2022-12-23T12:15:50.801Z,944.1
2022-12-23T12:16:50.819Z,944.02
2022-12-23T12:17:50.776Z,944.02
2022-12-23T12:18:55.365Z,944.06
2022-12-23T12:19:50.754Z,944.01
2022-12-23T12:20:50.792Z,944.01
2022-12-23T12:21:50.753Z,944
2022-12-23T12:22:50.733Z,943.97
2022-12-23T12:23:55.417Z,943.96
2022-12-23T12:24:50.710Z,943.97
2022-12-23T12:25:50.705Z,943.97
2022-12-23T12:26:50.684Z,943.99
2022-12-23T12:27:50.670Z,943.97
2022-12-23T12:28:50.673Z,943.96
2022-12-23T12:29:50.646Z,943.98
2022-12-23T12:30:50.689Z,944.01
2022-12-23T12:31:50.618Z,943.97
2022-12-23T12:32:50.601Z,944
2022-12-23T12:33:50.592Z,943.98
2022-12-23T12:34:50.588Z,944
2022-12-23T12:35:53.568Z,943.97
2022-12-23T12:36:50.607Z,943.94
2022-12-23T12:37:50.547Z,943.91
2022-12-23T12:38:50.532Z,943.87
2022-12-23T12:39:50.511Z,943.86
2022-12-23T12:40:50.495Z,943.85
2022-12-23T12:41:50.505Z,943.85
2022-12-23T12:42:50.478Z,943.84
2022-12-23T12:43:50.471Z,943.78
2022-12-23T12:44:50.454Z,943.78
2022-12-23T12:45:50.528Z,943.78
2022-12-23T12:46:50.417Z,943.79